createdAt,value
2023-05-03T00:00:13.568Z,19.48
2023-05-03T00:03:04.592Z,19.25
2023-05-03T00:05:33.155Z,20.00
2023-05-03T00:08:02.250Z,20.17
2023-05-03T00:10:30.740Z,19.75
2023-05-03T00:13:00.400Z,20.95
2023-05-03T00:15:29.026Z,22.17
2023-05-03T00:17:57.204Z,23.25
2023-05-03T00:20:26.394Z,25.30
2023-05-03T00:22:54.669Z,24.13
2023-05-03T00:25:23.113Z,23.10
2023-05-03T00:27:51.213Z,24.20
2023-05-03T00:30:21.383Z,25.33
2023-05-03T00:32:51.550Z,30.17
2023-05-03T00:35:20.270Z,30.38
2023-05-03T00:37:48.371Z,27.58
2023-05-03T00:40:18.647Z,27.77
2023-05-03T00:42:47.210Z,29.77
2023-05-03T00:45:15.911Z,35.03
2023-05-03T00:47:45.567Z,39.58
2023-05-03T00:50:14.020Z,40.03
2023-05-03T00:52:42.859Z,41.10
2023-05-03T00:55:11.663Z,43.88
2023-05-03T00:57:39.860Z,43.85
2023-05-03T01:00:10.700Z,41.38
2023-05-03T01:02:39.538Z,44.10
2023-05-03T01:05:10.809Z,42.80
2023-05-03T01:07:46.276Z,40.33
2023-05-03T01:10:24.451Z,41.25
2023-05-03T01:12:58.044Z,41.80
2023-05-03T01:15:35.838Z,41.45
2023-05-03T01:18:08.942Z,43.28
2023-05-03T01:20:39.041Z,44.03
2023-05-03T01:23:12.975Z,47.10
2023-05-03T01:25:42.770Z,44.53
2023-05-03T01:28:10.926Z,44.25
2023-05-03T01:30:39.726Z,43.25
2023-05-03T01:33:12.479Z,43.25
2023-05-03T01:35:42.930Z,40.40
2023-05-03T01:38:13.593Z,40.03
2023-05-03T01:40:46.328Z,43.08
2023-05-03T01:43:16.340Z,44.50
2023-05-03T01:45:44.874Z,44.47
2023-05-03T01:48:17.265Z,41.83
2023-05-03T01:50:45.897Z,42.83
2023-05-03T01:53:14.280Z,40.78
2023-05-03T01:55:44.031Z,40.33
2023-05-03T01:58:12.567Z,38.70
2023-05-03T02:00:41.052Z,39.20
2023-05-03T02:03:09.217Z,38.45
2023-05-03T02:05:37.780Z,37.90
2023-05-03T02:08:06.057Z,40.72
2023-05-03T02:10:34.917Z,40.63
2023-05-03T02:13:04.562Z,40.05
2023-05-03T02:15:33.364Z,39.67
2023-05-03T02:18:02.601Z,37.83
2023-05-03T02:20:36.593Z,36.30
2023-05-03T02:23:05.014Z,35.65
2023-05-03T02:25:33.512Z,35.67
2023-05-03T02:28:01.794Z,34.15
2023-05-03T02:30:31.885Z,32.88
2023-05-03T02:33:00.207Z,32.17
2023-05-03T02:35:28.966Z,32.08
2023-05-03T02:37:57.443Z,31.60
2023-05-03T02:40:25.910Z,32.47
2023-05-03T02:42:54.047Z,33.60
2023-05-03T02:45:22.594Z,34.13
2023-05-03T02:47:52.109Z,36.55
2023-05-03T02:50:20.502Z,36.55
2023-05-03T02:52:48.671Z,35.28
2023-05-03T02:55:17.707Z,35.58
2023-05-03T02:57:45.819Z,36.83
2023-05-03T03:00:15.534Z,36.88
2023-05-03T03:02:43.751Z,39.33
2023-05-03T03:05:13.673Z,40.65
2023-05-03T03:07:41.893Z,42.15
2023-05-03T03:10:11.227Z,42.83
2023-05-03T03:12:39.556Z,43.67
2023-05-03T03:15:09.466Z,43.28
2023-05-03T03:17:39.361Z,49.05
2023-05-03T03:20:11.591Z,47.60
2023-05-03T03:22:41.459Z,48.58
2023-05-03T03:25:10.733Z,45.88
2023-05-03T03:27:39.850Z,45.45
2023-05-03T03:30:10.505Z,44.28
2023-05-03T03:32:38.705Z,46.78
2023-05-03T03:35:07.509Z,46.05
2023-05-03T03:37:35.706Z,48.80
2023-05-03T03:40:08.282Z,50.17
2023-05-03T03:42:36.487Z,47.05
2023-05-03T03:45:05.674Z,51.50
2023-05-03T03:47:34.199Z,52.25
2023-05-03T03:50:03.138Z,55.75
2023-05-03T03:52:31.583Z,56.33
2023-05-03T03:55:00.037Z,54.20
2023-05-03T03:57:30.370Z,56.20
2023-05-03T03:59:59.178Z,51.88
2023-05-03T04:02:29.228Z,55.97
2023-05-03T04:04:57.693Z,51.10
2023-05-03T04:07:25.886Z,51.90
2023-05-03T04:09:54.341Z,52.63
2023-05-03T04:12:22.525Z,50.17
2023-05-03T04:14:52.497Z,48.88
2023-05-03T04:17:20.656Z,45.85
2023-05-03T04:19:49.005Z,49.55
2023-05-03T04:22:17.146Z,45.08
2023-05-03T04:24:45.961Z,44.28
2023-05-03T04:27:14.763Z,43.03
2023-05-03T04:29:43.213Z,44.28
2023-05-03T04:32:14.347Z,44.45
2023-05-03T04:34:43.275Z,40.28
2023-05-03T04:37:11.377Z,39.35
2023-05-03T04:39:39.904Z,39.85
2023-05-03T04:42:08.836Z,40.88
2023-05-03T04:44:37.186Z,41.97
2023-05-03T04:47:05.284Z,42.10
2023-05-03T04:49:35.702Z,41.80
2023-05-03T04:52:03.924Z,41.15
2023-05-03T04:54:32.712Z,42.40
2023-05-03T04:57:00.888Z,41.25
2023-05-03T04:59:29.263Z,41.03
2023-05-03T05:01:57.553Z,40.28
2023-05-03T05:04:26.198Z,41.40
2023-05-03T05:06:56.191Z,40.63
2023-05-03T05:09:26.120Z,40.72
2023-05-03T05:11:56.789Z,42.13
2023-05-03T05:14:27.653Z,41.92
2023-05-03T05:16:55.773Z,41.65
2023-05-03T05:19:24.226Z,38.53
2023-05-03T05:21:52.646Z,40.17
2023-05-03T05:24:22.629Z,39.13
2023-05-03T05:26:50.790Z,38.95
2023-05-03T05:29:19.305Z,39.42
2023-05-03T05:31:47.552Z,41.13
2023-05-03T05:34:16.431Z,42.50
2023-05-03T05:36:44.569Z,41.20
2023-05-03T05:39:13.124Z,39.95
2023-05-03T05:41:42.616Z,39.20
2023-05-03T05:44:11.842Z,38.85
2023-05-03T05:46:39.978Z,42.63
2023-05-03T05:49:08.386Z,40.67
2023-05-03T05:51:36.491Z,42.30
2023-05-03T05:54:05.077Z,41.30
2023-05-03T05:56:33.412Z,40.67
2023-05-03T05:59:05.805Z,42.13
2023-05-03T06:04:02.959Z,42.75
2023-05-03T06:06:31.443Z,43.85
2023-05-03T06:09:04.768Z,43.65
2023-05-03T06:11:38.838Z,44.95
2023-05-03T06:14:09.583Z,47.83
2023-05-03T06:16:38.052Z,47.47
2023-05-03T06:19:06.532Z,49.85
2023-05-03T06:21:35.085Z,49.58
2023-05-03T06:24:03.490Z,50.05
2023-05-03T06:26:32.035Z,51.13
2023-05-03T06:29:01.429Z,54.50
2023-05-03T06:31:31.035Z,53.50
2023-05-03T06:34:00.181Z,54.08
2023-05-03T06:36:30.280Z,57.47
2023-05-03T06:38:58.662Z,57.28
2023-05-03T06:41:26.803Z,57.78
2023-05-03T06:43:55.175Z,56.92
2023-05-03T06:46:23.432Z,53.10
2023-05-03T06:48:56.222Z,50.45
2023-05-03T06:51:28.036Z,54.10
2023-05-03T06:53:56.772Z,51.58
2023-05-03T06:56:25.211Z,55.28
2023-05-03T06:58:54.488Z,51.00
2023-05-03T07:01:23.359Z,56.05
2023-05-03T07:03:53.268Z,56.97
2023-05-03T07:06:23.142Z,56.60
2023-05-03T07:08:52.352Z,54.17
2023-05-03T07:11:23.762Z,57.25
2023-05-03T07:13:52.394Z,53.78
2023-05-03T07:16:20.965Z,55.88
2023-05-03T07:18:49.826Z,53.35
2023-05-03T07:21:19.328Z,51.80
2023-05-03T07:23:48.307Z,47.13
2023-05-03T07:26:16.503Z,49.38
2023-05-03T07:28:45.111Z,46.05
2023-05-03T07:31:13.451Z,47.63
2023-05-03T07:33:42.044Z,41.63
2023-05-03T07:36:10.827Z,41.42
2023-05-03T07:38:40.854Z,33.90
2023-05-03T07:41:09.220Z,30.13
2023-05-03T07:43:37.738Z,29.10
2023-05-03T07:46:05.981Z,27.58
2023-05-03T07:48:34.372Z,28.77
2023-05-03T07:51:04.770Z,25.15
2023-05-03T07:53:35.198Z,24.17
2023-05-03T07:56:05.002Z,22.75
2023-05-03T07:58:40.204Z,25.30
2023-05-03T08:01:09.427Z,27.88
2023-05-03T08:03:38.196Z,28.40
2023-05-03T08:06:06.970Z,23.45
2023-05-03T08:08:36.708Z,24.75
2023-05-03T08:11:06.292Z,24.15
2023-05-03T08:13:34.699Z,24.83
2023-05-03T08:16:03.262Z,21.10
2023-05-03T08:18:31.961Z,21.63
2023-05-03T08:21:00.582Z,23.90
2023-05-03T08:23:29.261Z,25.35
2023-05-03T08:25:57.841Z,26.50
2023-05-03T08:28:28.036Z,26.08
2023-05-03T08:30:56.980Z,27.65
2023-05-03T08:33:26.145Z,21.33
2023-05-03T08:35:54.257Z,24.70
2023-05-03T08:38:22.721Z,22.65
2023-05-03T08:40:52.592Z,24.15
2023-05-03T08:43:21.907Z,25.33
2023-05-03T08:45:51.528Z,24.38
2023-05-03T08:48:20.713Z,23.98
2023-05-03T08:50:51.662Z,22.75
2023-05-03T08:53:20.405Z,21.43
2023-05-03T08:55:48.585Z,29.83
2023-05-03T08:58:17.275Z,27.50
2023-05-03T09:00:45.729Z,26.00
2023-05-03T09:03:15.562Z,23.17
2023-05-03T09:05:44.671Z,26.73
2023-05-03T09:08:14.593Z,25.05
2023-05-03T09:10:43.796Z,21.83
2023-05-03T09:13:12.946Z,20.02
2023-05-03T09:15:41.322Z,15.40
2023-05-03T09:18:17.401Z,16.90
2023-05-03T09:20:51.724Z,17.35
2023-05-03T09:23:31.317Z,17.00
2023-05-03T09:26:00.388Z,17.13
2023-05-03T09:28:29.052Z,18.58
2023-05-03T09:31:06.841Z,21.75
2023-05-03T09:33:36.756Z,21.60
2023-05-03T09:36:06.463Z,18.50
2023-05-03T09:38:38.045Z,19.27
2023-05-03T09:41:06.944Z,17.33
2023-05-03T09:43:35.781Z,16.33
2023-05-03T09:46:11.520Z,16.65
2023-05-03T09:48:42.172Z,17.10
2023-05-03T09:51:11.379Z,17.70
2023-05-03T09:53:41.436Z,19.75
2023-05-03T09:56:12.507Z,17.08
2023-05-03T09:58:41.345Z,19.15
2023-05-03T10:01:10.449Z,18.58
2023-05-03T10:03:43.890Z,19.73
2023-05-03T10:06:24.223Z,18.75
2023-05-03T10:08:55.592Z,18.15
2023-05-03T10:11:25.874Z,17.95
2023-05-03T10:13:54.515Z,19.92
2023-05-03T10:16:26.513Z,20.30
2023-05-03T10:19:01.480Z,20.48
2023-05-03T10:21:36.854Z,20.20
2023-05-03T10:24:12.980Z,18.92
2023-05-03T10:26:46.084Z,17.75
2023-05-03T10:29:48.926Z,18.25
2023-05-03T10:32:39.506Z,17.45
2023-05-03T10:35:11.439Z,18.70
2023-05-03T10:37:41.654Z,18.60
2023-05-03T10:40:13.689Z,17.63
2023-05-03T10:42:46.536Z,19.80
2023-05-03T10:45:26.772Z,20.08
2023-05-03T10:48:20.422Z,18.55
2023-05-03T10:50:52.509Z,16.88
2023-05-03T10:53:40.158Z,15.43
2023-05-03T10:56:10.147Z,18.50
2023-05-03T10:58:39.727Z,17.48
2023-05-03T11:01:09.036Z,17.88
2023-05-03T11:03:47.838Z,16.05
2023-05-03T11:06:31.758Z,15.95
2023-05-03T11:09:00.156Z,15.60
2023-05-03T11:11:28.760Z,16.17
2023-05-03T11:13:57.054Z,17.27
2023-05-03T11:16:25.963Z,15.80
2023-05-03T11:18:54.435Z,17.63
2023-05-03T11:21:23.144Z,18.33
2023-05-03T11:23:52.602Z,19.05
2023-05-03T11:26:26.334Z,18.92
2023-05-03T11:28:55.406Z,17.85
2023-05-03T11:31:23.807Z,18.30
2023-05-03T11:33:52.413Z,18.90
2023-05-03T11:36:21.684Z,19.08
2023-05-03T11:38:49.805Z,15.57
2023-05-03T11:41:19.867Z,15.80
2023-05-03T11:43:55.074Z,16.77
2023-05-03T11:46:27.567Z,17.77
2023-05-03T11:48:56.248Z,15.82
2023-05-03T11:51:25.561Z,16.05
2023-05-03T11:53:53.712Z,21.08
2023-05-03T11:56:23.440Z,13.43
2023-05-03T11:58:53.526Z,14.65
2023-05-03T12:01:23.860Z,12.82
2023-05-03T12:03:55.365Z,14.98
2023-05-03T12:08:53.075Z,14.02
2023-05-03T12:11:26.169Z,12.25
2023-05-03T12:13:59.971Z,14.02
2023-05-03T12:16:28.966Z,13.77
2023-05-03T12:19:02.951Z,16.13
2023-05-03T12:21:54.214Z,16.30
2023-05-03T12:24:28.852Z,20.38
2023-05-03T12:27:02.081Z,29.48
2023-05-03T12:29:34.644Z,22.70
2023-05-03T12:32:04.904Z,16.98
2023-05-03T12:34:36.196Z,14.90
2023-05-03T12:37:06.617Z,14.93
2023-05-03T12:39:39.211Z,15.95
2023-05-03T12:42:10.144Z,22.70
2023-05-03T12:44:42.646Z,28.13
2023-05-03T12:47:15.811Z,30.52
2023-05-03T12:49:52.234Z,25.60
2023-05-03T12:52:37.490Z,24.15
2023-05-03T12:55:11.346Z,20.05
2023-05-03T12:57:45.751Z,23.05
2023-05-03T13:05:31.067Z,16.42
2023-05-03T13:08:07.968Z,15.60
2023-05-03T13:10:38.574Z,17.38
2023-05-03T13:13:09.230Z,19.52
2023-05-03T13:15:37.580Z,16.02
2023-05-03T13:18:07.899Z,16.63
2023-05-03T13:20:37.209Z,15.57
2023-05-03T13:23:05.703Z,14.52
2023-05-03T13:25:33.870Z,16.45
2023-05-03T13:28:02.503Z,16.75
2023-05-03T13:30:32.209Z,15.25
2023-05-03T13:33:00.636Z,15.45
2023-05-03T13:35:28.989Z,16.63
2023-05-03T13:37:57.991Z,17.33
2023-05-03T13:40:26.638Z,19.15
2023-05-03T13:42:55.024Z,26.20
2023-05-03T13:45:23.496Z,26.05
2023-05-03T13:48:07.216Z,27.05
2023-05-03T13:50:41.704Z,23.33
2023-05-03T13:53:10.365Z,18.17
2023-05-03T13:55:38.756Z,17.55
2023-05-03T13:58:07.115Z,16.92
2023-05-03T14:00:35.391Z,17.27
2023-05-03T14:03:06.534Z,18.60
2023-05-03T14:05:34.834Z,21.40
2023-05-03T14:08:03.257Z,23.15
2023-05-03T14:10:31.465Z,21.52
2023-05-03T14:13:00.323Z,20.63
2023-05-03T14:15:28.583Z,23.83
2023-05-03T14:17:59.837Z,21.00
2023-05-03T14:20:31.731Z,20.35
2023-05-03T14:23:00.146Z,21.08
2023-05-03T14:25:28.359Z,24.63
2023-05-03T14:27:57.280Z,26.70
2023-05-03T14:30:25.959Z,28.42
2023-05-03T14:32:54.399Z,25.80
2023-05-03T14:35:23.243Z,26.60
2023-05-03T14:37:53.090Z,29.15
2023-05-03T14:40:21.801Z,31.40
2023-05-03T14:42:50.224Z,32.42
2023-05-03T14:45:18.577Z,29.48
2023-05-03T14:47:47.118Z,31.02
2023-05-03T14:50:16.159Z,29.52
2023-05-03T14:52:44.614Z,32.97
2023-05-03T14:55:14.266Z,32.22
2023-05-03T14:57:42.694Z,36.78
2023-05-03T15:00:14.389Z,62.85
2023-05-03T15:02:43.934Z,42.83
2023-05-03T15:05:12.756Z,27.55
2023-05-03T15:07:41.466Z,25.38
2023-05-03T15:10:10.533Z,24.17
2023-05-03T15:12:40.585Z,24.63
2023-05-03T15:15:12.060Z,25.60
2023-05-03T15:17:40.622Z,25.10
2023-05-03T15:20:13.921Z,25.73
2023-05-03T15:22:42.475Z,33.17
2023-05-03T15:25:11.159Z,38.80
2023-05-03T15:27:41.059Z,44.95
2023-05-03T15:30:12.107Z,40.95
2023-05-03T15:32:40.841Z,34.00
2023-05-03T15:35:09.764Z,33.38
2023-05-03T15:37:38.744Z,49.45
2023-05-03T15:40:09.248Z,40.28
2023-05-03T15:42:37.819Z,44.78
2023-05-03T15:45:09.478Z,43.83
2023-05-03T15:47:38.570Z,41.85
2023-05-03T15:50:08.361Z,36.47
2023-05-03T15:52:37.360Z,30.85
2023-05-03T15:55:07.057Z,29.67
2023-05-03T15:57:35.638Z,29.58
2023-05-03T16:00:06.452Z,30.80
2023-05-03T16:02:37.346Z,39.47
2023-05-03T16:05:06.037Z,35.03
2023-05-03T16:07:34.501Z,36.00
2023-05-03T16:10:02.863Z,38.47
2023-05-03T16:12:31.673Z,37.13
2023-05-03T16:15:00.041Z,36.42
2023-05-03T16:17:28.713Z,34.65
2023-05-03T16:19:58.292Z,34.78
2023-05-03T16:22:26.976Z,33.25
2023-05-03T16:24:55.126Z,34.75
2023-05-03T16:27:23.521Z,33.08
2023-05-03T16:29:51.726Z,33.15
2023-05-03T16:32:20.688Z,33.50
2023-05-03T16:34:50.362Z,32.83
2023-05-03T16:37:20.608Z,30.10
2023-05-03T16:39:49.000Z,31.20
2023-05-03T16:42:17.539Z,31.08
2023-05-03T16:44:45.694Z,30.88
2023-05-03T16:47:14.354Z,30.55
2023-05-03T16:49:42.486Z,30.25
2023-05-03T16:52:11.775Z,31.55
2023-05-03T16:54:41.528Z,30.02
2023-05-03T16:57:10.452Z,30.27
2023-05-03T16:59:38.579Z,29.02
2023-05-03T17:02:07.338Z,28.73
2023-05-03T17:04:35.722Z,32.03
2023-05-03T17:07:04.360Z,30.63
2023-05-03T17:09:32.731Z,29.25
2023-05-03T17:12:03.605Z,29.58
2023-05-03T17:14:32.060Z,32.05
2023-05-03T17:17:00.611Z,32.78
2023-05-03T17:19:29.519Z,32.20
2023-05-03T17:21:57.956Z,33.92
2023-05-03T17:24:27.163Z,32.05
2023-05-03T17:26:56.696Z,33.45
2023-05-03T17:29:27.370Z,33.22
2023-05-03T17:31:56.337Z,32.25
2023-05-03T17:34:24.984Z,34.15
2023-05-03T17:36:56.090Z,33.45
2023-05-03T17:39:24.471Z,34.38
2023-05-03T17:41:53.451Z,31.98
2023-05-03T17:44:22.836Z,32.88
2023-05-03T17:46:52.838Z,35.97
2023-05-03T17:49:21.240Z,37.17
2023-05-03T17:51:49.745Z,36.78
2023-05-03T17:54:17.940Z,40.47
2023-05-03T17:56:46.609Z,38.33
2023-05-03T17:59:14.694Z,37.58
2023-05-03T18:01:43.174Z,37.75
2023-05-03T18:04:12.941Z,36.85
2023-05-03T18:06:41.550Z,38.80
2023-05-03T18:09:10.045Z,36.22
2023-05-03T18:11:39.969Z,36.85
2023-05-03T18:14:08.341Z,36.63
2023-05-03T18:16:37.000Z,37.47
2023-05-03T18:19:05.265Z,36.50
2023-05-03T18:21:36.057Z,38.53
2023-05-03T18:24:04.871Z,36.28
2023-05-03T18:26:33.458Z,34.70
2023-05-03T18:29:01.574Z,35.75
2023-05-03T18:31:30.073Z,36.80
2023-05-03T18:33:58.940Z,36.28
2023-05-03T18:36:27.385Z,39.28
2023-05-03T18:38:56.903Z,38.42
2023-05-03T18:41:25.253Z,39.20
2023-05-03T18:43:54.522Z,42.05
2023-05-03T18:46:22.925Z,42.35
2023-05-03T18:48:51.056Z,42.35
2023-05-03T18:51:19.709Z,43.60
2023-05-03T18:53:48.058Z,47.25
2023-05-03T18:56:18.066Z,44.42
2023-05-03T18:58:48.254Z,45.50
2023-05-03T19:01:16.759Z,46.03
2023-05-03T19:03:44.935Z,46.67
2023-05-03T19:06:14.220Z,48.35
2023-05-03T19:08:43.706Z,47.58
2023-05-03T19:11:12.779Z,48.30
2023-05-03T19:13:44.856Z,47.13
2023-05-03T19:16:13.582Z,49.63
2023-05-03T19:18:42.065Z,47.60
2023-05-03T19:21:11.950Z,46.50
2023-05-03T19:23:40.432Z,46.10
2023-05-03T19:26:08.827Z,46.22
2023-05-03T19:28:37.241Z,47.28
2023-05-03T19:31:07.321Z,45.72
2023-05-03T19:33:35.582Z,45.55
2023-05-03T19:36:06.714Z,43.83
2023-05-03T19:38:36.230Z,44.53
2023-05-03T19:41:09.589Z,42.97
2023-05-03T19:43:37.810Z,44.72
2023-05-03T19:46:07.994Z,43.88
2023-05-03T19:48:36.482Z,43.25
2023-05-03T19:51:06.077Z,44.67
2023-05-03T19:53:34.739Z,45.40
2023-05-03T19:56:03.928Z,44.30
2023-05-03T19:58:32.805Z,45.55
2023-05-03T20:01:01.607Z,47.08
2023-05-03T20:03:31.540Z,46.05
2023-05-03T20:06:00.210Z,48.13
2023-05-03T20:08:28.388Z,45.65
2023-05-03T20:10:56.832Z,46.97
2023-05-03T20:13:27.489Z,45.45
2023-05-03T20:15:56.282Z,45.40
2023-05-03T20:18:24.462Z,46.13
2023-05-03T20:20:54.217Z,46.55
2023-05-03T20:23:22.431Z,44.20
2023-05-03T20:25:50.781Z,43.35
2023-05-03T20:28:18.994Z,44.67
2023-05-03T20:30:47.439Z,42.42
2023-05-03T20:33:15.990Z,42.30
2023-05-03T20:35:44.438Z,42.38
2023-05-03T20:38:13.933Z,41.03
2023-05-03T20:40:42.441Z,42.85
2023-05-03T20:43:10.950Z,45.30
2023-05-03T20:45:39.376Z,41.75
2023-05-03T20:48:08.983Z,43.80
2023-05-03T20:50:37.711Z,42.78
2023-05-03T20:53:05.839Z,42.03
2023-05-03T20:55:35.764Z,43.75
2023-05-03T20:58:04.549Z,44.28
2023-05-03T21:00:33.009Z,44.45
2023-05-03T21:03:01.279Z,44.10
2023-05-03T21:05:30.102Z,41.92
2023-05-03T21:07:58.201Z,41.22
2023-05-03T21:10:26.992Z,43.63
2023-05-03T21:12:56.607Z,43.55
2023-05-03T21:15:25.035Z,46.90
2023-05-03T21:17:53.304Z,49.83
2023-05-03T21:20:22.572Z,48.72
2023-05-03T21:22:50.827Z,50.15
2023-05-03T21:25:19.750Z,49.50
2023-05-03T21:27:47.851Z,49.92
2023-05-03T21:30:20.520Z,51.03
2023-05-03T21:32:49.659Z,49.65
2023-05-03T21:35:18.376Z,50.40
2023-05-03T21:37:47.376Z,49.85
2023-05-03T21:40:16.532Z,49.45
2023-05-03T21:42:44.660Z,46.53
2023-05-03T21:45:13.470Z,48.67
2023-05-03T21:47:43.463Z,48.72
2023-05-03T21:50:12.815Z,45.70
2023-05-03T21:52:41.318Z,45.53
2023-05-03T21:55:10.536Z,42.67
2023-05-03T21:57:38.758Z,40.83
2023-05-03T22:00:13.993Z,44.70
2023-05-03T22:02:43.817Z,47.60
2023-05-03T22:05:13.076Z,85.40
2023-05-03T22:07:41.270Z,70.88
2023-05-03T22:10:10.441Z,55.05
2023-05-03T22:12:38.766Z,57.65
2023-05-03T22:15:09.204Z,58.30
2023-05-03T22:17:37.376Z,58.97
2023-05-03T22:20:10.410Z,58.35
2023-05-03T22:22:38.793Z,56.13
2023-05-03T22:25:07.937Z,56.35
2023-05-03T22:27:36.834Z,55.83
2023-05-03T22:30:06.219Z,55.30
2023-05-03T22:32:34.589Z,58.63
2023-05-03T22:35:03.553Z,58.40
2023-05-03T22:37:33.024Z,57.97
2023-05-03T22:40:01.724Z,58.20
2023-05-03T22:42:30.007Z,59.85
2023-05-03T22:44:58.584Z,57.63
2023-05-03T22:47:26.868Z,57.55
2023-05-03T22:49:55.819Z,58.05
2023-05-03T22:52:23.923Z,60.92
2023-05-03T22:54:57.841Z,58.30
2023-05-03T22:57:26.090Z,60.45
2023-05-03T22:59:54.474Z,58.97
2023-05-03T23:02:22.830Z,60.65
2023-05-03T23:04:51.582Z,58.03
2023-05-03T23:07:19.905Z,59.42
2023-05-03T23:09:48.714Z,57.15
2023-05-03T23:12:18.624Z,59.55
2023-05-03T23:14:47.021Z,57.83
2023-05-03T23:17:15.128Z,54.90
2023-05-03T23:19:43.649Z,53.67
2023-05-03T23:22:11.880Z,52.20
2023-05-03T23:24:40.506Z,52.55
2023-05-03T23:27:10.734Z,50.65
2023-05-03T23:29:41.452Z,51.10
2023-05-03T23:32:09.937Z,52.50
2023-05-03T23:34:38.992Z,52.25
2023-05-03T23:37:07.258Z,54.33
2023-05-03T23:39:35.600Z,52.67
2023-05-03T23:42:03.691Z,53.95
2023-05-03T23:44:42.936Z,51.67
2023-05-03T23:47:20.281Z,50.63
2023-05-03T23:49:48.869Z,51.78
2023-05-03T23:52:19.129Z,49.15
2023-05-03T23:54:47.768Z,50.80
2023-05-03T23:57:16.218Z,55.92
2023-05-03T23:59:44.652Z,59.58
